createdAt,value
2023-04-29T00:01:13.893Z,55.20
2023-04-29T00:03:40.721Z,55.58
2023-04-29T00:06:08.009Z,55.17
2023-04-29T00:08:34.835Z,52.55
2023-04-29T00:11:01.536Z,54.58
2023-04-29T00:13:28.215Z,55.15
2023-04-29T00:15:55.003Z,59.05
2023-04-29T00:18:21.952Z,58.28
2023-04-29T00:20:48.733Z,59.47
2023-04-29T00:23:15.538Z,57.03
2023-04-29T00:25:42.276Z,52.53
2023-04-29T00:28:08.972Z,49.13
2023-04-29T00:30:36.479Z,47.88
2023-04-29T00:33:03.963Z,48.95
2023-04-29T00:35:30.933Z,47.20
2023-04-29T00:37:58.230Z,45.58
2023-04-29T00:40:25.130Z,49.08
2023-04-29T00:42:51.900Z,45.10
2023-04-29T00:45:18.710Z,41.60
2023-04-29T00:47:45.541Z,47.00
2023-04-29T00:50:12.649Z,43.53
2023-04-29T00:52:39.905Z,45.95
2023-04-29T00:55:08.860Z,44.15
2023-04-29T00:57:35.662Z,41.95
2023-04-29T01:00:03.578Z,45.25
2023-04-29T01:02:30.634Z,44.95
2023-04-29T01:04:57.686Z,40.78
2023-04-29T01:08:03.826Z,45.47
2023-04-29T01:10:40.124Z,37.00
2023-04-29T01:13:09.233Z,35.97
2023-04-29T01:15:59.013Z,37.85
2023-04-29T01:18:49.757Z,33.78
2023-04-29T01:21:20.117Z,37.33
2023-04-29T01:23:47.195Z,38.70
2023-04-29T01:26:14.803Z,37.17
2023-04-29T01:29:28.591Z,37.83
2023-04-29T01:32:32.334Z,34.72
2023-04-29T01:35:03.114Z,40.08
2023-04-29T01:37:52.181Z,36.72
2023-04-29T01:40:26.608Z,39.78
2023-04-29T01:43:15.759Z,38.03
2023-04-29T01:45:46.594Z,31.08
2023-04-29T01:48:16.256Z,35.15
2023-04-29T01:50:44.544Z,44.55
2023-04-29T01:53:12.555Z,39.95
2023-04-29T01:55:40.094Z,37.22
2023-04-29T01:58:28.357Z,43.55
2023-04-29T02:01:14.208Z,42.55
2023-04-29T02:03:41.468Z,41.85
2023-04-29T02:06:11.676Z,44.78
2023-04-29T02:08:38.799Z,45.60
2023-04-29T02:11:06.656Z,53.58
2023-04-29T02:13:41.554Z,57.28
2023-04-29T02:16:13.471Z,54.35
2023-04-29T02:18:56.969Z,56.08
2023-04-29T02:21:23.902Z,52.28
2023-04-29T02:23:51.551Z,56.03
2023-04-29T02:26:18.292Z,59.97
2023-04-29T02:28:45.005Z,56.47
2023-04-29T02:31:12.398Z,57.15
2023-04-29T02:33:39.175Z,57.25
2023-04-29T02:36:09.377Z,51.47
2023-04-29T02:38:36.023Z,50.95
2023-04-29T02:41:02.942Z,54.60
2023-04-29T02:43:31.186Z,48.35
2023-04-29T02:46:00.283Z,47.60
2023-04-29T02:48:27.315Z,49.67
2023-04-29T02:50:54.123Z,50.83
2023-04-29T02:53:21.893Z,53.53
2023-04-29T02:55:48.686Z,50.22
2023-04-29T02:58:15.702Z,54.35
2023-04-29T03:00:42.617Z,56.65
2023-04-29T03:03:10.757Z,49.92
2023-04-29T03:05:37.631Z,56.35
2023-04-29T03:08:04.706Z,52.97
2023-04-29T03:10:31.817Z,51.25
2023-04-29T03:12:59.140Z,51.58
2023-04-29T03:15:26.093Z,60.63
2023-04-29T03:17:52.923Z,55.55
2023-04-29T03:20:20.345Z,58.40
2023-04-29T03:22:47.092Z,53.95
2023-04-29T03:25:13.803Z,50.53
2023-04-29T03:27:41.934Z,54.97
2023-04-29T03:30:10.153Z,49.13
2023-04-29T03:32:43.204Z,54.70
2023-04-29T03:35:14.147Z,55.55
2023-04-29T03:38:08.032Z,54.97
2023-04-29T03:40:36.251Z,52.13
2023-04-29T03:43:03.632Z,53.72
2023-04-29T03:45:31.087Z,55.65
2023-04-29T03:47:58.103Z,55.80
2023-04-29T03:50:26.004Z,46.50
2023-04-29T03:52:53.089Z,54.22
2023-04-29T03:55:19.982Z,51.83
2023-04-29T03:57:47.569Z,46.67
2023-04-29T04:00:17.035Z,50.75
2023-04-29T04:02:46.934Z,57.88
2023-04-29T04:05:14.673Z,52.83
2023-04-29T04:07:46.813Z,49.55
2023-04-29T04:10:31.872Z,42.53
2023-04-29T04:13:01.305Z,49.25
2023-04-29T04:15:28.098Z,41.90
2023-04-29T04:17:55.436Z,46.50
2023-04-29T04:20:22.256Z,49.47
2023-04-29T04:22:50.137Z,45.22
2023-04-29T04:25:22.076Z,39.83
2023-04-29T04:27:49.852Z,41.83
2023-04-29T04:30:28.889Z,44.78
2023-04-29T04:32:56.043Z,41.72
2023-04-29T04:35:23.254Z,43.83
2023-04-29T04:37:51.319Z,44.55
2023-04-29T04:40:18.623Z,45.92
2023-04-29T04:43:15.553Z,41.83
2023-04-29T04:45:42.996Z,40.40
2023-04-29T04:48:09.790Z,40.35
2023-04-29T04:50:38.836Z,39.40
2023-04-29T04:53:05.809Z,42.45
2023-04-29T04:55:43.875Z,37.08
2023-04-29T04:58:10.709Z,42.30
2023-04-29T05:00:38.905Z,37.58
2023-04-29T05:03:06.091Z,39.50
2023-04-29T05:05:33.828Z,34.08
2023-04-29T05:08:01.147Z,36.05
2023-04-29T05:10:37.864Z,38.08
2023-04-29T05:13:06.471Z,38.80
2023-04-29T05:15:35.521Z,42.20
2023-04-29T05:18:03.701Z,34.13
2023-04-29T05:20:31.178Z,40.72
2023-04-29T05:23:01.006Z,38.10
2023-04-29T05:25:30.228Z,36.08
2023-04-29T05:27:57.485Z,37.40
2023-04-29T05:30:26.252Z,33.63
2023-04-29T05:32:53.161Z,29.52
2023-04-29T05:35:22.082Z,31.00
2023-04-29T05:37:49.499Z,28.63
2023-04-29T05:40:40.915Z,32.38
2023-04-29T05:43:27.529Z,28.23
2023-04-29T05:45:55.348Z,29.42
2023-04-29T05:48:24.783Z,28.10
2023-04-29T05:50:51.665Z,32.30
2023-04-29T05:53:18.505Z,30.88
2023-04-29T05:55:46.446Z,31.10
2023-04-29T05:58:15.028Z,30.60
2023-04-29T06:00:43.834Z,28.27
2023-04-29T06:03:19.367Z,31.40
2023-04-29T06:05:47.782Z,30.13
2023-04-29T06:08:20.887Z,31.63
2023-04-29T06:13:20.517Z,30.40
2023-04-29T06:15:47.410Z,29.48
2023-04-29T06:18:15.497Z,31.08
2023-04-29T06:20:42.952Z,33.25
2023-04-29T06:23:09.811Z,33.38
2023-04-29T06:25:37.178Z,27.45
2023-04-29T06:28:08.364Z,28.92
2023-04-29T06:30:35.474Z,29.55
2023-04-29T06:33:02.344Z,28.52
2023-04-29T06:35:29.193Z,29.02
2023-04-29T06:37:58.770Z,28.15
2023-04-29T06:40:46.486Z,30.60
2023-04-29T06:43:43.120Z,27.25
2023-04-29T06:46:34.779Z,32.72
2023-04-29T06:49:17.097Z,28.45
2023-04-29T06:51:43.905Z,25.05
2023-04-29T06:54:10.837Z,29.02
2023-04-29T06:56:37.624Z,25.52
2023-04-29T06:59:04.541Z,41.22
2023-04-29T07:01:31.388Z,26.15
2023-04-29T07:03:58.745Z,26.83
2023-04-29T07:06:25.920Z,23.58
2023-04-29T07:08:54.815Z,26.73
2023-04-29T07:11:25.034Z,27.25
2023-04-29T07:13:55.451Z,26.73
2023-04-29T07:16:22.354Z,27.73
2023-04-29T07:18:49.714Z,27.92
2023-04-29T07:21:16.509Z,22.15
2023-04-29T07:23:43.784Z,24.77
2023-04-29T07:26:15.984Z,23.40
2023-04-29T07:28:45.680Z,28.60
2023-04-29T07:31:12.504Z,23.77
2023-04-29T07:33:39.361Z,27.02
2023-04-29T07:36:07.393Z,23.38
2023-04-29T07:38:34.899Z,20.95
2023-04-29T07:41:01.806Z,21.13
2023-04-29T07:43:29.118Z,21.50
2023-04-29T07:45:55.951Z,22.10
2023-04-29T07:48:23.208Z,19.45
2023-04-29T07:50:51.041Z,18.17
2023-04-29T07:53:18.493Z,17.90
2023-04-29T07:55:45.495Z,22.00
2023-04-29T07:58:12.483Z,20.88
2023-04-29T08:00:40.275Z,18.60
2023-04-29T08:03:07.566Z,17.98
2023-04-29T08:05:34.631Z,20.67
2023-04-29T08:08:02.248Z,18.92
2023-04-29T08:10:32.553Z,19.50
2023-04-29T08:13:00.510Z,18.45
2023-04-29T08:15:28.601Z,16.50
2023-04-29T08:17:56.502Z,19.80
2023-04-29T08:20:23.574Z,16.92
2023-04-29T08:22:50.403Z,14.18
2023-04-29T08:25:17.680Z,12.77
2023-04-29T08:27:45.788Z,19.73
2023-04-29T08:30:12.948Z,14.68
2023-04-29T08:32:39.803Z,16.90
2023-04-29T08:35:07.165Z,13.27
2023-04-29T08:37:36.278Z,15.68
2023-04-29T08:40:03.856Z,14.40
2023-04-29T08:42:36.537Z,15.00
2023-04-29T08:47:31.750Z,13.15
2023-04-29T08:50:05.789Z,11.00
2023-04-29T08:52:33.062Z,12.10
2023-04-29T08:55:02.397Z,15.85
2023-04-29T08:57:31.260Z,14.35
2023-04-29T09:00:01.183Z,15.85
2023-04-29T09:02:28.958Z,14.02
2023-04-29T09:05:05.941Z,12.90
2023-04-29T09:07:34.231Z,13.98
2023-04-29T09:10:01.954Z,10.90
2023-04-29T09:12:30.470Z,13.15
2023-04-29T09:14:59.814Z,16.95
2023-04-29T09:17:42.553Z,11.52
2023-04-29T09:20:21.577Z,11.68
2023-04-29T09:23:06.282Z,11.70
2023-04-29T09:25:33.132Z,10.43
2023-04-29T09:28:15.749Z,13.05
2023-04-29T09:30:48.222Z,10.55
2023-04-29T09:35:43.861Z,11.63
2023-04-29T09:38:15.818Z,14.48
2023-04-29T09:40:58.287Z,9.25
2023-04-29T09:43:26.257Z,11.68
2023-04-29T09:45:53.427Z,11.27
2023-04-29T09:48:20.258Z,11.02
2023-04-29T09:51:01.493Z,13.13
2023-04-29T09:53:30.383Z,9.52
2023-04-29T09:56:03.652Z,11.27
2023-04-29T09:58:39.670Z,9.05
2023-04-29T10:01:07.366Z,10.55
2023-04-29T10:03:51.227Z,11.27
2023-04-29T10:06:19.141Z,8.38
2023-04-29T10:08:48.018Z,8.40
2023-04-29T10:11:16.291Z,9.80
2023-04-29T10:13:46.163Z,13.73
2023-04-29T10:16:28.208Z,10.25
2023-04-29T10:18:56.455Z,12.35
2023-04-29T10:21:29.043Z,10.18
2023-04-29T10:26:29.077Z,9.27
2023-04-29T10:28:57.432Z,10.82
2023-04-29T10:31:27.742Z,9.65
2023-04-29T10:33:57.698Z,10.95
2023-04-29T10:36:28.423Z,7.65
2023-04-29T10:39:00.933Z,10.23
2023-04-29T10:43:59.366Z,10.93
2023-04-29T10:46:27.216Z,11.07
2023-04-29T10:49:12.242Z,9.85
2023-04-29T10:51:45.946Z,9.70
2023-04-29T10:54:16.955Z,12.38
2023-04-29T10:56:54.296Z,9.07
2023-04-29T10:59:42.365Z,8.35
2023-04-29T11:02:11.151Z,9.85
2023-04-29T11:05:09.177Z,9.35
2023-04-29T11:07:36.406Z,8.43
2023-04-29T11:10:03.630Z,8.23
2023-04-29T11:12:30.387Z,10.00
2023-04-29T11:15:03.237Z,5.70
2023-04-29T11:17:36.482Z,7.30
2023-04-29T11:20:03.914Z,7.40
2023-04-29T11:22:32.100Z,9.43
2023-04-29T11:25:07.125Z,6.85
2023-04-29T11:27:39.818Z,7.85
2023-04-29T11:30:07.689Z,7.75
2023-04-29T11:32:41.190Z,11.90
2023-04-29T11:35:08.561Z,15.73
2023-04-29T11:37:35.542Z,9.88
2023-04-29T11:40:02.788Z,7.07
2023-04-29T11:42:29.580Z,10.70
2023-04-29T11:45:00.603Z,13.55
2023-04-29T11:47:29.618Z,9.95
2023-04-29T11:50:04.111Z,9.57
2023-04-29T11:52:32.845Z,9.85
2023-04-29T11:55:00.517Z,10.90
2023-04-29T11:57:27.548Z,9.52
2023-04-29T11:59:55.750Z,9.00
2023-04-29T12:02:23.842Z,12.00
2023-04-29T12:04:51.032Z,12.40
2023-04-29T12:07:18.126Z,7.70
2023-04-29T12:09:45.449Z,8.60
2023-04-29T12:12:13.745Z,7.93
2023-04-29T12:14:41.449Z,7.82
2023-04-29T12:17:09.974Z,7.35
2023-04-29T12:19:40.154Z,9.73
2023-04-29T12:22:08.327Z,8.20
2023-04-29T12:24:39.676Z,9.27
2023-04-29T12:27:10.944Z,7.40
2023-04-29T12:29:38.765Z,11.88
2023-04-29T12:32:05.612Z,7.57
2023-04-29T12:34:33.474Z,7.78
2023-04-29T12:37:00.816Z,8.00
2023-04-29T12:39:29.906Z,6.68
2023-04-29T12:42:00.282Z,6.60
2023-04-29T12:44:27.419Z,5.53
2023-04-29T12:46:55.710Z,7.30
2023-04-29T12:49:25.600Z,7.00
2023-04-29T12:51:52.576Z,6.13
2023-04-29T12:54:19.308Z,7.07
2023-04-29T12:56:48.397Z,9.52
2023-04-29T12:59:16.051Z,7.22
2023-04-29T13:01:42.936Z,5.95
2023-04-29T13:04:12.229Z,6.70
2023-04-29T13:06:39.624Z,6.65
2023-04-29T13:09:14.650Z,7.32
2023-04-29T13:11:44.800Z,6.53
2023-04-29T13:14:11.735Z,9.90
2023-04-29T13:16:38.823Z,7.93
2023-04-29T13:19:18.800Z,6.35
2023-04-29T13:21:53.053Z,6.70
2023-04-29T13:24:21.003Z,8.85
2023-04-29T13:26:49.652Z,7.82
2023-04-29T13:29:17.682Z,7.93
2023-04-29T13:31:44.553Z,6.72
2023-04-29T13:34:11.402Z,7.22
2023-04-29T13:36:38.638Z,5.55
2023-04-29T13:39:05.354Z,6.38
2023-04-29T13:41:34.990Z,6.82
2023-04-29T13:44:03.062Z,7.30
2023-04-29T13:46:32.528Z,7.28
2023-04-29T13:54:48.245Z,5.38
2023-04-29T13:59:40.130Z,6.57
2023-04-29T14:04:33.099Z,6.25
2023-04-29T14:07:00.138Z,7.05
2023-04-29T14:09:27.120Z,6.05
2023-04-29T14:11:54.022Z,4.80
2023-04-29T14:14:20.975Z,6.38
2023-04-29T14:16:48.026Z,4.20
2023-04-29T14:19:14.880Z,5.50
2023-04-29T14:21:41.646Z,5.22
2023-04-29T14:24:08.488Z,3.72
2023-04-29T14:26:36.707Z,5.47
2023-04-29T14:29:04.557Z,7.15
2023-04-29T14:31:35.641Z,5.10
2023-04-29T14:34:02.636Z,3.20
2023-04-29T14:36:29.387Z,3.28
2023-04-29T14:38:56.386Z,3.55
2023-04-29T14:41:23.637Z,3.83
2023-04-29T14:43:50.546Z,4.72
2023-04-29T14:46:17.627Z,5.20
2023-04-29T14:48:45.651Z,4.72
2023-04-29T14:51:12.681Z,3.55
2023-04-29T14:53:39.415Z,5.72
2023-04-29T14:56:07.986Z,4.85
2023-04-29T14:58:34.774Z,6.13
2023-04-29T15:01:01.623Z,4.30
2023-04-29T15:03:28.532Z,5.00
2023-04-29T15:05:56.220Z,5.80
2023-04-29T15:08:23.207Z,3.50
2023-04-29T15:10:50.066Z,3.70
2023-04-29T15:13:17.054Z,5.35
2023-04-29T15:15:43.758Z,8.10
2023-04-29T15:18:10.490Z,6.28
2023-04-29T15:20:38.005Z,6.55
2023-04-29T15:23:05.679Z,7.00
2023-04-29T15:25:34.292Z,5.43
2023-04-29T15:28:02.566Z,5.20
2023-04-29T15:30:29.499Z,2.90
2023-04-29T15:32:56.326Z,3.75
2023-04-29T15:35:23.176Z,3.55
2023-04-29T15:37:49.972Z,2.95
2023-04-29T15:40:17.535Z,4.13
2023-04-29T15:42:44.412Z,4.97
2023-04-29T15:45:11.576Z,2.55
2023-04-29T15:47:38.449Z,3.58
2023-04-29T15:50:05.877Z,5.03
2023-04-29T15:52:32.759Z,3.38
2023-04-29T15:54:59.579Z,2.78
2023-04-29T15:57:26.674Z,3.15
2023-04-29T15:59:53.693Z,3.33
2023-04-29T16:02:21.014Z,3.67
2023-04-29T16:04:48.007Z,2.90
2023-04-29T16:07:14.799Z,2.08
2023-04-29T16:09:42.433Z,5.65
2023-04-29T16:12:11.523Z,4.60
2023-04-29T16:14:38.355Z,4.45
2023-04-29T16:17:05.908Z,4.32
2023-04-29T16:19:35.187Z,5.65
2023-04-29T16:22:03.566Z,10.55
2023-04-29T16:24:30.287Z,3.92
2023-04-29T16:26:58.794Z,5.15
2023-04-29T16:29:25.843Z,5.13
2023-04-29T16:31:53.093Z,6.82
2023-04-29T16:34:20.190Z,6.63
2023-04-29T16:36:47.169Z,6.25
2023-04-29T16:39:13.962Z,11.45
2023-04-29T16:41:41.004Z,9.52
2023-04-29T16:44:07.799Z,13.02
2023-04-29T16:46:35.082Z,11.38
2023-04-29T16:49:02.113Z,13.15
2023-04-29T16:51:29.287Z,14.10
2023-04-29T16:53:56.102Z,13.15
2023-04-29T16:56:23.027Z,12.85
2023-04-29T16:58:49.928Z,13.15
2023-04-29T17:01:19.664Z,13.07
2023-04-29T17:03:47.525Z,10.82
2023-04-29T17:06:15.572Z,11.48
2023-04-29T17:08:42.945Z,9.85
2023-04-29T17:11:10.381Z,9.82
2023-04-29T17:13:37.157Z,7.63
2023-04-29T17:16:04.178Z,8.98
2023-04-29T17:18:34.132Z,10.05
2023-04-29T17:21:00.863Z,7.28
2023-04-29T17:23:27.550Z,7.85
2023-04-29T17:25:55.330Z,7.28
2023-04-29T17:28:22.315Z,6.03
2023-04-29T17:30:49.419Z,10.13
2023-04-29T17:33:17.578Z,9.43
2023-04-29T17:35:45.239Z,7.22
2023-04-29T17:38:12.105Z,5.95
2023-04-29T17:40:39.133Z,8.75
2023-04-29T17:43:05.830Z,5.93
2023-04-29T17:45:32.804Z,9.18
2023-04-29T17:47:59.610Z,6.10
2023-04-29T17:50:26.348Z,7.95
2023-04-29T17:52:53.015Z,5.38
2023-04-29T17:55:19.900Z,4.55
2023-04-29T17:57:46.671Z,6.20
2023-04-29T18:00:13.806Z,6.63
2023-04-29T18:02:40.916Z,6.40
2023-04-29T18:05:08.013Z,4.78
2023-04-29T18:07:34.753Z,6.72
2023-04-29T18:10:01.845Z,4.80
2023-04-29T18:12:28.986Z,6.22
2023-04-29T18:14:55.757Z,3.25
2023-04-29T18:17:22.711Z,3.58
2023-04-29T18:19:49.742Z,4.80
2023-04-29T18:22:16.713Z,4.80
2023-04-29T18:24:44.610Z,6.70
2023-04-29T18:27:11.425Z,5.72
2023-04-29T18:29:38.394Z,4.55
2023-04-29T18:32:08.124Z,4.70
2023-04-29T18:34:37.762Z,4.88
2023-04-29T18:37:04.617Z,8.90
2023-04-29T18:39:31.335Z,6.60
2023-04-29T18:41:58.259Z,5.38
2023-04-29T18:44:26.113Z,6.07
2023-04-29T18:46:52.923Z,4.45
2023-04-29T18:49:19.618Z,6.70
2023-04-29T18:51:49.068Z,3.63
2023-04-29T18:54:18.034Z,4.85
2023-04-29T18:56:46.832Z,4.72
2023-04-29T18:59:19.179Z,4.35
2023-04-29T19:01:47.174Z,5.38
2023-04-29T19:04:14.512Z,5.60
2023-04-29T19:06:41.966Z,4.40
2023-04-29T19:09:08.913Z,4.72
2023-04-29T19:11:36.155Z,4.90
2023-04-29T19:14:06.308Z,5.05
2023-04-29T19:16:35.517Z,5.95
2023-04-29T19:19:04.380Z,5.05
2023-04-29T19:21:33.219Z,4.53
2023-04-29T19:24:00.626Z,4.38
2023-04-29T19:26:27.453Z,4.97
2023-04-29T19:28:54.261Z,6.75
2023-04-29T19:31:21.746Z,4.55
2023-04-29T19:33:48.787Z,4.63
2023-04-29T19:36:15.513Z,5.70
2023-04-29T19:38:42.274Z,6.22
2023-04-29T19:41:09.446Z,6.30
2023-04-29T19:43:36.223Z,6.90
2023-04-29T19:46:03.041Z,14.73
2023-04-29T19:48:30.008Z,5.28
2023-04-29T19:50:59.478Z,5.75
2023-04-29T19:53:27.200Z,6.10
2023-04-29T19:55:54.262Z,7.53
2023-04-29T19:58:21.076Z,6.25
2023-04-29T20:00:48.433Z,6.22
2023-04-29T20:03:15.924Z,6.18
2023-04-29T20:05:43.204Z,5.78
2023-04-29T20:08:10.018Z,6.25
2023-04-29T20:10:36.800Z,5.18
2023-04-29T20:13:03.556Z,7.20
2023-04-29T20:15:30.860Z,5.93
2023-04-29T20:17:58.166Z,5.47
2023-04-29T20:20:25.789Z,5.80
2023-04-29T20:22:55.422Z,7.72
2023-04-29T20:25:22.180Z,5.78
2023-04-29T20:27:48.943Z,6.05
2023-04-29T20:30:16.097Z,5.78
2023-04-29T20:32:43.658Z,4.95
2023-04-29T20:35:10.438Z,5.88
2023-04-29T20:37:38.312Z,5.75
2023-04-29T20:40:07.506Z,6.65
2023-04-29T20:42:34.166Z,4.75
2023-04-29T20:45:00.847Z,4.85
2023-04-29T20:47:28.484Z,5.95
2023-04-29T20:49:55.550Z,3.85
2023-04-29T20:52:24.901Z,3.95
2023-04-29T20:54:52.528Z,4.30
2023-04-29T20:57:19.329Z,4.20
2023-04-29T20:59:46.252Z,5.82
2023-04-29T21:02:13.581Z,6.38
2023-04-29T21:04:40.573Z,6.82
2023-04-29T21:07:07.733Z,6.45
2023-04-29T21:09:35.748Z,4.15
2023-04-29T21:12:05.361Z,5.75
2023-04-29T21:14:35.548Z,3.88
2023-04-29T21:17:02.398Z,5.25
2023-04-29T21:19:29.156Z,3.47
2023-04-29T21:21:55.836Z,3.58
2023-04-29T21:24:22.627Z,3.58
2023-04-29T21:26:50.596Z,4.50
2023-04-29T21:29:17.369Z,3.72
2023-04-29T21:31:44.220Z,3.72
2023-04-29T21:34:11.075Z,6.30
2023-04-29T21:36:37.785Z,5.30
2023-04-29T21:39:06.094Z,4.40
2023-04-29T21:41:39.641Z,4.32
2023-04-29T21:44:07.394Z,4.80
2023-04-29T21:46:35.735Z,4.80
2023-04-29T21:49:05.201Z,6.43
2023-04-29T21:51:33.551Z,5.15
2023-04-29T21:54:00.359Z,4.82
2023-04-29T21:56:27.211Z,4.38
2023-04-29T21:58:54.072Z,22.45
2023-04-29T22:01:29.359Z,9.73
2023-04-29T22:03:56.978Z,4.78
2023-04-29T22:06:24.406Z,4.00
2023-04-29T22:08:51.485Z,7.20
2023-04-29T22:11:21.736Z,6.82
2023-04-29T22:13:48.855Z,5.25
2023-04-29T22:16:16.539Z,5.28
2023-04-29T22:18:43.338Z,6.10
2023-04-29T22:21:10.153Z,5.60
2023-04-29T22:23:36.876Z,7.70
2023-04-29T22:26:03.636Z,6.95
2023-04-29T22:28:30.662Z,4.93
2023-04-29T22:30:57.518Z,5.25
2023-04-29T22:33:24.197Z,4.85
2023-04-29T22:35:51.093Z,6.10
2023-04-29T22:38:18.048Z,5.40
2023-04-29T22:40:51.311Z,5.60
2023-04-29T22:43:18.722Z,5.75
2023-04-29T22:45:56.053Z,8.90
2023-04-29T22:48:27.326Z,6.00
2023-04-29T22:50:56.244Z,7.18
2023-04-29T22:53:23.354Z,8.35
2023-04-29T22:55:57.998Z,7.28
2023-04-29T22:58:25.856Z,5.88
2023-04-29T23:00:57.026Z,7.57
2023-04-29T23:03:24.462Z,10.50
2023-04-29T23:05:51.851Z,4.75
2023-04-29T23:08:18.611Z,9.20
2023-04-29T23:10:49.310Z,8.65
2023-04-29T23:13:16.521Z,7.43
2023-04-29T23:15:43.536Z,9.00
2023-04-29T23:18:10.472Z,6.72
2023-04-29T23:20:38.734Z,7.97
2023-04-29T23:23:05.978Z,9.02
2023-04-29T23:25:32.694Z,7.68
2023-04-29T23:27:59.620Z,8.10
2023-04-29T23:30:26.708Z,7.70
2023-04-29T23:32:53.472Z,9.30
2023-04-29T23:35:20.456Z,9.85
2023-04-29T23:37:47.333Z,8.98
2023-04-29T23:40:15.780Z,8.23
2023-04-29T23:42:42.712Z,9.95
2023-04-29T23:45:09.811Z,6.40
2023-04-29T23:47:36.518Z,10.00
2023-04-29T23:50:04.090Z,5.75
2023-04-29T23:52:30.970Z,7.13
2023-04-29T23:54:57.836Z,8.40
2023-04-29T23:57:24.758Z,7.32
2023-04-29T23:59:53.004Z,7.25
